• Join FlightAware (Why Join?)
  • Login
  • US Flag 
10:32AM EDT


 

Airport Tracker/Info


-or-


 

Live Flight TrackerFlight Track Log ✈ AAY828 ✈ 18-Apr-2012 ✈ KPIE - KGSP

Flight Track Log - Related Links

Times and Time Zones

All times are in EDT time to prevent confusion due to time zone crossing. See the AAY828 flight status page for this flight to view local times or setup timezone preferences in your user account.

Time Position Orientation Groundspeed Altitude Reporting Facility
EDT Latitude Longitude Course Direction KTS MPH feet Rate Location/Type
11:12AM 27.8833 -82.6833 196° South 170 196 1,000  Level Tampa TRACON
11:13AM 27.8333 -82.7000 270° West 204 235 2,500 1,320 Climbing Tampa TRACON
11:14AM 27.8333 -82.7667 348° North 271 312 3,800 720 Climbing Tampa TRACON
11:15AM 27.9000 -82.7833 10° North 280 322 3,900 1,080 Climbing Tampa TRACON
11:16AM 27.9833 -82.7667 North 283 326 6,100 1,980 Climbing Tampa TRACON
11:18AM 28.1811 -82.7325 10° North 290 334 11,100 1,980 Climbing Jacksonville Center
11:19AM 28.2875 -82.7111 North 335 386 12,800 1,860 Climbing Jacksonville Center
11:20AM 28.4044 -82.6992 North 384 442 14,900 2,400 Climbing Jacksonville Center
11:21AM 28.5233 -82.6917 North 415 478 17,600 2,640 Climbing Jacksonville Center
11:22AM 28.6403 -82.6892 North 422 486 20,200 2,220 Climbing Jacksonville Center
11:23AM 28.7425 -82.6819 North 417 480 22,100 1,560 Climbing Jacksonville Center
11:24AM 28.8592 -82.6744 North 411 473 23,400 1,020 Climbing Jacksonville Center
11:25AM 28.9803 -82.6694 North 418 481 24,200 1,080 Climbing Jacksonville Center
11:26AM 29.1097 -82.6619 North 442 509 25,600 1,500 Climbing Jacksonville Center
11:27AM 29.2369 -82.6544 North 448 516 27,300 1,380 Climbing Jacksonville Center
11:28AM 29.3664 -82.6472 North 459 528 28,400 1,140 Climbing Jacksonville Center
11:29AM 29.4958 -82.6397 North 459 528 29,600 1,080 Climbing Jacksonville Center
11:30AM 29.6294 -82.6275 North 459 528 30,600 660 Climbing Jacksonville Center
11:31AM 29.7589 -82.6150 North 464 534 31,000 180 Climbing Jacksonville Center
11:32AM 29.8903 -82.6028 North 464 534 31,000 -60 Level Jacksonville Center
11:33AM 30.0197 -82.5950 North 464 534 30,900  Descending Jacksonville Center
11:34AM 30.1617 -82.5828 North 464 534 31,000  Climbing Jacksonville Center
11:35AM 30.2911 -82.5725 North 464 534 30,900  Descending Jacksonville Center
11:36AM 30.4186 -82.5625 North 459 528 31,000  Climbing Jacksonville Center
11:37AM 30.5500 -82.5525 North 459 528 30,900  Descending Jacksonville Center
11:38AM 30.6775 -82.5472 North 459 528 31,000  Climbing Jacksonville Center
11:39AM 30.8089 -82.5419 North 459 528 30,900  Descending Jacksonville Center
11:40AM 30.9361 -82.5367 North 459 528 31,000  Climbing Jacksonville Center
11:41AM 31.0656 -82.5311 North 459 528 30,900 -60 Descending Jacksonville Center
11:42AM 31.1931 -82.5258 North 459 528 30,900  Level Jacksonville Center
11:43AM 31.3244 -82.5206 North 459 528 30,900  Level Jacksonville Center
11:44AM 31.4539 -82.5078 North 459 528 31,000  Climbing Jacksonville Center
11:47AM 31.7033 -82.4817 North 460 529 31,000  Level Atlanta Center
11:48AM 31.8325 -82.4597 North 460 529 31,000  Level Atlanta Center
11:49AM 31.9617 -82.4428 North 460 529 31,000  Level Atlanta Center
11:50AM 32.0928 -82.4208 North 460 529 31,000  Level Atlanta Center
11:51AM 32.2200 -82.4014 11° North 460 529 31,000 -180 Level Atlanta Center
11:52AM 32.3428 -82.3744 North 455 524 30,700 -660 Descending Atlanta Center
11:53AM 32.4761 -82.3597 North 461 531 29,700 -960 Descending Atlanta Center
11:54AM 32.6094 -82.3397 North 473 544 28,800 -960 Descending Atlanta Center
11:55AM 32.7428 -82.3175 North 478 550 27,800 -1,080 Descending Atlanta Center
11:56AM 32.8719 -82.2978 North 478 550 26,700 -1,080 Descending Atlanta Center
11:57AM 32.9947 -82.2778 North 463 533 25,700 -960 Descending Atlanta Center
11:58AM 33.1133 -82.2581 North 448 516 24,800 -900 Descending Atlanta Center
11:59AM 33.2383 -82.2381 North 440 506 24,000 -420 Descending Atlanta Center
12:00PM 33.3592 -82.2158 North 440 506 24,000  Level Atlanta Center
12:01PM 33.4944 -82.1956 North 443 510 24,000  Level Atlanta Center
12:02PM 33.6172 -82.1728 North 443 510 24,000 -420 Level Atlanta Center
12:03PM 33.7400 -82.1553 North 443 510 23,200 -540 Descending Atlanta Center
12:04PM 33.8567 -82.1353 North 438 504 23,000 -840 Descending Atlanta Center
12:05PM 33.9794 -82.1150 North 438 504 21,600 -1,500 Descending Atlanta Center
12:06PM 34.0961 -82.0922 North 438 504 20,100 -1,620 Descending Atlanta Center
12:07PM 34.2086 -82.0744 North 417 480 18,400 -1,500 Descending Atlanta Center
12:08PM 34.3042 -82.0572 359° North 397 457 17,100 -1,800 Descending Atlanta Center
12:09PM 34.4044 -82.0600 345° North 379 436 14,900 -2,340 Descending Atlanta Center
12:10PM 34.5008 -82.0903 325° Northwest 362 417 12,500 -2,400 Descending Atlanta Center
12:11PM 34.5750 -82.1542 320° Northwest 340 391 10,100 -2,100 Descending Atlanta Center
12:12PM 34.6386 -82.2186 304° West 315 362 8,300 -2,040 Descending Atlanta Center
12:13PM 34.6792 -82.2908 297° West 294 338 6,100 -1,440 Descending Atlanta Center
12:14PM 34.7072 -82.3586 32° Northeast 251 289 5,400 -960 Descending Atlanta Center
12:15PM 34.7589 -82.3194 32° Northeast 152 175 4,200 -1,260 Descending Atlanta Center